createdAt,value
2017-04-30T00:01:00.563Z,0
2017-04-30T00:02:01.857Z,0
2017-04-30T00:03:03.144Z,0
2017-04-30T00:04:04.433Z,0
2017-04-30T00:05:05.723Z,0
2017-04-30T00:06:07.006Z,0
2017-04-30T00:07:08.292Z,0
2017-04-30T00:08:09.576Z,0
2017-04-30T00:09:10.862Z,0
2017-04-30T00:10:12.150Z,0
2017-04-30T00:11:13.437Z,0
2017-04-30T00:12:14.725Z,0
2017-04-30T00:13:16.011Z,0
2017-04-30T00:14:17.299Z,0
2017-04-30T00:15:18.585Z,0
2017-04-30T00:16:19.876Z,0
2017-04-30T00:17:21.160Z,0
2017-04-30T00:18:22.447Z,0
2017-04-30T00:19:23.732Z,0
2017-04-30T00:20:25.020Z,0
2017-04-30T00:21:26.304Z,0
2017-04-30T00:22:27.589Z,0
2017-04-30T00:23:28.881Z,0
2017-04-30T00:24:30.166Z,0
2017-04-30T00:25:31.455Z,0
2017-04-30T00:26:32.742Z,0
2017-04-30T00:27:34.026Z,0
2017-04-30T00:28:35.313Z,0
2017-04-30T00:29:36.598Z,0
2017-04-30T00:30:37.885Z,0
2017-04-30T00:31:39.172Z,0
2017-04-30T00:32:40.453Z,0
2017-04-30T00:33:41.746Z,0
2017-04-30T00:34:43.031Z,0
2017-04-30T00:35:44.322Z,0
2017-04-30T00:36:45.604Z,0
2017-04-30T00:37:46.891Z,0
2017-04-30T00:38:48.179Z,0
2017-04-30T00:39:49.465Z,0
2017-04-30T00:40:50.752Z,0
2017-04-30T00:41:52.038Z,0
2017-04-30T00:42:53.325Z,0
2017-04-30T00:43:54.611Z,0
2017-04-30T00:44:55.897Z,0
2017-04-30T00:45:57.182Z,0
2017-04-30T00:46:58.469Z,0
2017-04-30T00:47:59.759Z,0
2017-04-30T00:49:01.046Z,0
2017-04-30T00:50:02.337Z,0
2017-04-30T00:51:03.625Z,0
2017-04-30T00:52:04.911Z,0
2017-04-30T00:53:06.197Z,0
2017-04-30T00:54:07.483Z,0
2017-04-30T00:55:08.771Z,0
2017-04-30T00:56:10.063Z,0
2017-04-30T00:57:11.349Z,0
2017-04-30T00:58:12.634Z,0
2017-04-30T00:59:13.921Z,0
2017-04-30T01:00:15.207Z,0
2017-04-30T01:01:16.495Z,0
2017-04-30T01:02:17.782Z,0
2017-04-30T01:03:19.069Z,0
2017-04-30T01:04:20.352Z,0
2017-04-30T01:05:21.638Z,0
2017-04-30T01:06:22.925Z,0
2017-04-30T01:07:24.211Z,0
2017-04-30T01:08:25.500Z,0
2017-04-30T01:09:26.787Z,0
2017-04-30T01:10:28.072Z,0
2017-04-30T01:11:29.359Z,0
2017-04-30T01:12:30.646Z,0
2017-04-30T01:13:31.930Z,0
2017-04-30T01:14:33.215Z,0
2017-04-30T01:15:34.501Z,0
2017-04-30T01:16:35.788Z,0
2017-04-30T01:17:37.076Z,0
2017-04-30T01:18:38.360Z,0
2017-04-30T01:19:39.648Z,0
2017-04-30T01:20:40.935Z,0
2017-04-30T01:21:42.221Z,0
2017-04-30T01:22:43.506Z,0
2017-04-30T01:23:44.791Z,0
2017-04-30T01:24:46.078Z,0
2017-04-30T01:25:47.365Z,0
2017-04-30T01:26:48.660Z,0
2017-04-30T01:27:49.947Z,0
2017-04-30T01:28:51.233Z,0
2017-04-30T01:29:52.521Z,0
2017-04-30T01:30:53.804Z,0
2017-04-30T01:31:55.088Z,0
2017-04-30T01:32:56.380Z,0
2017-04-30T01:33:57.658Z,0
2017-04-30T01:34:58.944Z,0
2017-04-30T01:36:00.230Z,0
2017-04-30T01:37:01.515Z,0
2017-04-30T01:38:02.801Z,0
2017-04-30T01:39:04.084Z,0
2017-04-30T01:40:05.369Z,0
2017-04-30T01:41:06.655Z,0
2017-04-30T01:42:07.942Z,0
2017-04-30T01:43:09.228Z,0
2017-04-30T01:44:10.515Z,0
2017-04-30T01:45:11.802Z,0
2017-04-30T01:46:13.088Z,0
2017-04-30T01:47:14.371Z,0
2017-04-30T01:48:15.660Z,0
2017-04-30T01:49:16.944Z,0
2017-04-30T01:50:18.229Z,0
2017-04-30T01:51:19.514Z,0
2017-04-30T01:52:20.801Z,0
2017-04-30T01:53:22.088Z,0
2017-04-30T01:54:23.372Z,0
2017-04-30T01:55:24.661Z,0
2017-04-30T01:56:25.945Z,0
2017-04-30T01:57:27.236Z,0
2017-04-30T01:58:28.525Z,0
2017-04-30T01:59:29.805Z,0
2017-04-30T02:00:31.096Z,0
2017-04-30T02:01:32.376Z,0
2017-04-30T02:02:33.662Z,0
2017-04-30T02:03:34.951Z,0
2017-04-30T02:04:36.239Z,0
2017-04-30T02:05:37.526Z,0
2017-04-30T02:06:38.811Z,0
2017-04-30T02:07:40.097Z,0
2017-04-30T02:08:41.385Z,0
2017-04-30T02:09:42.673Z,0
2017-04-30T02:10:43.963Z,0
2017-04-30T02:11:45.244Z,0
2017-04-30T02:12:46.534Z,0
2017-04-30T02:13:47.822Z,0
2017-04-30T02:14:49.108Z,0
2017-04-30T02:15:50.396Z,0
2017-04-30T02:16:51.684Z,0
2017-04-30T02:17:52.971Z,0
2017-04-30T02:18:54.254Z,0
2017-04-30T02:19:55.540Z,0
2017-04-30T02:20:56.823Z,0
2017-04-30T02:21:58.110Z,0
2017-04-30T02:22:59.394Z,0
2017-04-30T02:24:00.683Z,0
2017-04-30T02:25:01.972Z,0
2017-04-30T02:26:03.255Z,0
2017-04-30T02:27:04.542Z,0
2017-04-30T02:28:05.830Z,0
2017-04-30T02:29:07.115Z,0
2017-04-30T02:30:08.400Z,0
2017-04-30T02:31:09.687Z,0
2017-04-30T02:32:10.973Z,0
2017-04-30T02:33:12.258Z,0
2017-04-30T02:34:13.548Z,0
2017-04-30T02:35:14.837Z,0
2017-04-30T02:36:16.123Z,0
2017-04-30T02:37:17.409Z,0
2017-04-30T02:38:18.694Z,0
2017-04-30T02:39:19.979Z,0
2017-04-30T02:40:21.265Z,0
2017-04-30T02:41:22.548Z,0
2017-04-30T02:42:23.838Z,0
2017-04-30T02:43:25.130Z,0
2017-04-30T02:44:26.417Z,0
2017-04-30T02:45:27.702Z,0
2017-04-30T02:46:28.985Z,0
2017-04-30T02:47:30.271Z,0
2017-04-30T02:48:31.557Z,0
2017-04-30T02:49:32.845Z,0
2017-04-30T02:50:34.130Z,0
2017-04-30T02:51:35.418Z,0
2017-04-30T02:52:36.745Z,0
2017-04-30T02:53:38.030Z,0
2017-04-30T02:54:39.316Z,0
2017-04-30T02:55:40.600Z,0
2017-04-30T02:56:41.891Z,0
2017-04-30T02:57:43.178Z,0
2017-04-30T02:58:44.468Z,0
2017-04-30T02:59:45.751Z,0
2017-04-30T03:00:47.037Z,0
2017-04-30T03:01:48.321Z,0
2017-04-30T03:02:49.644Z,0
2017-04-30T03:03:50.894Z,0
2017-04-30T03:04:52.178Z,0
2017-04-30T03:05:53.463Z,0
2017-04-30T03:06:54.748Z,0
2017-04-30T03:07:56.033Z,0
2017-04-30T03:08:57.324Z,0
2017-04-30T03:09:58.605Z,0
2017-04-30T03:10:59.893Z,0
2017-04-30T03:12:01.179Z,0
2017-04-30T03:13:02.465Z,0
2017-04-30T03:14:03.749Z,0
2017-04-30T03:15:05.038Z,0
2017-04-30T03:16:06.324Z,0
2017-04-30T03:17:07.625Z,0
2017-04-30T03:18:08.892Z,0
2017-04-30T03:19:10.179Z,0
2017-04-30T03:20:11.470Z,0
2017-04-30T03:21:12.753Z,0
2017-04-30T03:22:14.039Z,0
2017-04-30T03:23:15.323Z,0
2017-04-30T03:24:16.608Z,0
2017-04-30T03:25:17.893Z,0
2017-04-30T03:26:19.180Z,0
2017-04-30T03:27:20.465Z,0
2017-04-30T03:28:21.753Z,0
2017-04-30T03:29:23.039Z,0
2017-04-30T03:30:24.325Z,0
2017-04-30T03:31:25.613Z,0
2017-04-30T03:32:26.900Z,0
2017-04-30T03:33:28.184Z,0
2017-04-30T03:34:29.469Z,0
2017-04-30T03:35:30.754Z,0
2017-04-30T03:36:32.042Z,0
2017-04-30T03:37:33.325Z,0
2017-04-30T03:38:34.613Z,0
2017-04-30T03:39:35.898Z,0
2017-04-30T03:40:37.187Z,0
2017-04-30T03:41:38.470Z,0
2017-04-30T03:42:39.758Z,0
2017-04-30T03:43:41.044Z,0
2017-04-30T03:44:42.329Z,0
2017-04-30T03:45:43.620Z,0
2017-04-30T03:46:44.912Z,0
2017-04-30T03:47:46.196Z,0
2017-04-30T03:48:47.484Z,0
2017-04-30T03:49:48.771Z,0
2017-04-30T03:50:50.059Z,0
2017-04-30T03:51:51.342Z,0
2017-04-30T03:52:52.628Z,0
2017-04-30T03:53:53.915Z,0
2017-04-30T03:54:55.201Z,0
2017-04-30T03:55:56.488Z,0
2017-04-30T03:56:57.776Z,0
2017-04-30T03:57:59.061Z,0
2017-04-30T03:59:00.348Z,0
2017-04-30T04:00:01.635Z,0
2017-04-30T04:01:02.923Z,0
2017-04-30T04:02:04.210Z,0
2017-04-30T04:03:05.498Z,0
2017-04-30T04:04:06.781Z,0
2017-04-30T04:05:08.071Z,0
2017-04-30T04:06:09.357Z,0
2017-04-30T04:07:10.645Z,0
2017-04-30T04:08:11.931Z,0
2017-04-30T04:09:13.217Z,0
2017-04-30T04:10:14.505Z,0
2017-04-30T04:11:15.793Z,5
2017-04-30T04:12:17.082Z,5
2017-04-30T04:13:18.370Z,5
2017-04-30T04:14:19.658Z,5
2017-04-30T04:15:20.955Z,5
2017-04-30T04:16:22.243Z,5
2017-04-30T04:17:23.529Z,5
2017-04-30T04:18:24.818Z,5
2017-04-30T04:19:26.104Z,5
2017-04-30T04:20:27.392Z,5
2017-04-30T04:21:28.681Z,5
2017-04-30T04:22:29.972Z,10
2017-04-30T04:23:31.264Z,10
2017-04-30T04:24:32.554Z,10
2017-04-30T04:25:33.845Z,10
2017-04-30T04:26:35.137Z,10
2017-04-30T04:27:36.422Z,10
2017-04-30T04:28:37.737Z,10
2017-04-30T04:29:39.012Z,10
2017-04-30T04:30:40.298Z,10
2017-04-30T04:31:41.589Z,15
2017-04-30T04:32:42.879Z,15
2017-04-30T04:33:44.171Z,15
2017-04-30T04:34:45.481Z,15
2017-04-30T04:35:46.761Z,15
2017-04-30T04:36:48.048Z,15
2017-04-30T04:37:49.336Z,15
2017-04-30T04:38:50.623Z,15
2017-04-30T04:39:51.913Z,20
2017-04-30T04:40:53.201Z,20
2017-04-30T04:41:54.490Z,20
2017-04-30T04:42:55.778Z,20
2017-04-30T04:43:57.074Z,20
2017-04-30T04:44:58.358Z,25
2017-04-30T04:45:59.646Z,25
2017-04-30T04:47:00.934Z,25
2017-04-30T04:48:02.222Z,25
2017-04-30T04:49:03.511Z,30
2017-04-30T04:50:04.799Z,30
2017-04-30T04:51:06.084Z,30
2017-04-30T04:52:07.375Z,30
2017-04-30T04:53:08.663Z,30
2017-04-30T04:54:09.953Z,30
2017-04-30T04:55:11.242Z,30
2017-04-30T04:56:12.532Z,35
2017-04-30T04:57:13.846Z,35
2017-04-30T04:58:15.121Z,35
2017-04-30T04:59:16.412Z,35
2017-04-30T05:00:17.702Z,35
2017-04-30T05:01:18.992Z,35
2017-04-30T05:02:20.280Z,35
2017-04-30T05:03:21.571Z,40
2017-04-30T05:04:22.860Z,40
2017-04-30T05:05:24.150Z,40
2017-04-30T05:06:25.439Z,40
2017-04-30T05:07:26.727Z,40
2017-04-30T05:08:28.015Z,40
2017-04-30T05:09:29.306Z,40
2017-04-30T05:10:30.593Z,45
2017-04-30T05:11:31.883Z,45
2017-04-30T05:12:33.170Z,45
2017-04-30T05:13:34.458Z,45
2017-04-30T05:14:35.747Z,45
2017-04-30T05:15:37.038Z,45
2017-04-30T05:16:38.340Z,45
2017-04-30T05:17:39.629Z,45
2017-04-30T05:18:40.921Z,50
2017-04-30T05:19:42.209Z,50
2017-04-30T05:20:43.503Z,50
2017-04-30T05:21:44.792Z,50
2017-04-30T05:22:46.082Z,50
2017-04-30T05:23:47.373Z,50
2017-04-30T05:24:48.662Z,50
2017-04-30T05:25:49.951Z,50
2017-04-30T05:26:51.240Z,50
2017-04-30T05:27:52.527Z,55
2017-04-30T05:28:53.816Z,55
2017-04-30T05:29:55.105Z,55
2017-04-30T05:30:56.396Z,55
2017-04-30T05:31:57.685Z,55
2017-04-30T05:32:58.974Z,55
2017-04-30T05:34:00.262Z,55
2017-04-30T05:35:01.551Z,60
2017-04-30T05:36:02.839Z,60
2017-04-30T05:37:04.128Z,60
2017-04-30T05:38:05.414Z,60
2017-04-30T05:39:06.705Z,60
2017-04-30T05:40:08.029Z,60
2017-04-30T05:41:09.321Z,60
2017-04-30T05:42:10.651Z,65
2017-04-30T05:43:11.936Z,65
2017-04-30T05:44:13.226Z,65
2017-04-30T05:45:14.516Z,65
2017-04-30T05:46:15.805Z,65
2017-04-30T05:47:17.094Z,65
2017-04-30T05:48:18.385Z,65
2017-04-30T05:49:19.675Z,65
2017-04-30T05:50:20.980Z,70
2017-04-30T05:51:22.266Z,70
2017-04-30T05:52:23.542Z,70
2017-04-30T05:53:24.838Z,70
2017-04-30T05:54:26.122Z,70
2017-04-30T05:55:27.411Z,70
2017-04-30T05:56:28.698Z,70
2017-04-30T05:57:29.987Z,70
2017-04-30T05:58:31.278Z,70
2017-04-30T05:59:32.565Z,75
2017-04-30T06:00:33.858Z,75
2017-04-30T06:01:35.143Z,75
2017-04-30T06:02:36.433Z,75
2017-04-30T06:03:37.720Z,75
2017-04-30T06:04:39.011Z,75
2017-04-30T06:05:40.297Z,75
2017-04-30T06:06:41.587Z,75
2017-04-30T06:07:42.875Z,75
2017-04-30T06:08:44.163Z,75
2017-04-30T06:09:45.480Z,80
2017-04-30T06:10:46.760Z,80
2017-04-30T06:11:48.054Z,80
2017-04-30T06:12:49.344Z,80
2017-04-30T06:13:50.635Z,80
2017-04-30T06:14:51.930Z,80
2017-04-30T06:15:53.220Z,80
2017-04-30T06:16:54.511Z,80
2017-04-30T06:17:55.801Z,80
2017-04-30T06:18:57.095Z,80
2017-04-30T06:19:58.388Z,80
2017-04-30T06:20:59.680Z,85
2017-04-30T06:22:00.974Z,85
2017-04-30T06:23:02.266Z,85
2017-04-30T06:24:03.558Z,85
2017-04-30T06:25:04.853Z,85
2017-04-30T06:26:06.146Z,85
2017-04-30T06:27:07.438Z,85
2017-04-30T06:28:08.731Z,85
2017-04-30T06:29:10.023Z,85
2017-04-30T06:30:11.314Z,85
2017-04-30T06:31:12.608Z,90
2017-04-30T06:32:13.902Z,90
2017-04-30T06:33:15.188Z,90
2017-04-30T06:34:16.480Z,90
2017-04-30T06:35:17.771Z,90
2017-04-30T06:36:19.075Z,90
2017-04-30T06:37:20.365Z,90
2017-04-30T06:38:21.658Z,90
2017-04-30T06:39:23.733Z,90
2017-04-30T06:40:25.844Z,90
2017-04-30T06:41:27.193Z,90
2017-04-30T06:42:28.580Z,90
2017-04-30T06:43:29.934Z,95
2017-04-30T06:44:32.449Z,95
2017-04-30T06:45:33.827Z,95
2017-04-30T06:46:35.164Z,95
2017-04-30T06:47:36.681Z,95
2017-04-30T06:48:38.025Z,95
2017-04-30T06:49:39.345Z,95
2017-04-30T06:50:40.748Z,95
2017-04-30T06:51:42.426Z,95
2017-04-30T06:52:43.723Z,95
2017-04-30T06:53:45.109Z,95
2017-04-30T06:54:46.401Z,95
2017-04-30T06:55:47.711Z,95
2017-04-30T06:56:49.025Z,95
2017-04-30T06:57:50.302Z,95
2017-04-30T06:58:51.599Z,95
2017-04-30T06:59:52.889Z,95
2017-04-30T07:00:54.176Z,95
2017-04-30T07:01:57.458Z,100
2017-04-30T07:02:58.764Z,100
2017-04-30T07:04:00.516Z,100
2017-04-30T07:05:02.423Z,95
2017-04-30T07:06:03.641Z,95
2017-04-30T07:07:05.036Z,95
2017-04-30T07:08:07.223Z,95
2017-04-30T07:09:08.585Z,100
2017-04-30T07:10:10.500Z,100
2017-04-30T07:11:11.795Z,95
2017-04-30T07:12:13.101Z,100
2017-04-30T07:13:14.391Z,100
2017-04-30T07:14:15.700Z,95
2017-04-30T07:15:21.665Z,100
2017-04-30T07:16:26.959Z,100
2017-04-30T07:17:31.786Z,105
2017-04-30T07:18:33.017Z,105
2017-04-30T07:19:34.326Z,105
2017-04-30T07:20:36.968Z,105
2017-04-30T07:21:39.428Z,105
2017-04-30T07:22:40.665Z,110
2017-04-30T07:23:41.957Z,105
2017-04-30T07:24:43.257Z,100
2017-04-30T07:25:45.714Z,105
2017-04-30T07:26:47.036Z,105
2017-04-30T07:27:48.346Z,105
2017-04-30T07:28:52.692Z,105
2017-04-30T07:29:53.989Z,105
2017-04-30T07:30:56.958Z,105
2017-04-30T07:31:58.249Z,105
2017-04-30T07:32:59.597Z,110
2017-04-30T07:34:01.530Z,110
2017-04-30T07:35:02.824Z,110
2017-04-30T07:36:04.115Z,110
2017-04-30T07:37:05.406Z,110
2017-04-30T07:38:09.927Z,110
2017-04-30T07:39:11.168Z,110
2017-04-30T07:40:12.482Z,105
2017-04-30T07:41:16.798Z,105
2017-04-30T07:42:18.167Z,110
2017-04-30T07:43:23.410Z,110
2017-04-30T07:44:24.654Z,110
2017-04-30T07:45:25.976Z,115
2017-04-30T07:46:27.271Z,115
2017-04-30T07:47:28.561Z,115
2017-04-30T07:48:29.852Z,115
2017-04-30T07:49:31.144Z,115
2017-04-30T07:50:33.055Z,115
2017-04-30T07:51:34.351Z,115
2017-04-30T07:52:35.661Z,115
2017-04-30T07:53:36.948Z,115
2017-04-30T07:54:38.242Z,115
2017-04-30T07:55:39.533Z,110
2017-04-30T07:56:40.826Z,110
2017-04-30T07:57:42.118Z,115
2017-04-30T07:58:43.406Z,115
2017-04-30T07:59:44.709Z,115
2017-04-30T08:00:46.011Z,115
2017-04-30T08:01:47.300Z,115
2017-04-30T08:02:48.594Z,115
2017-04-30T08:03:49.888Z,115
2017-04-30T08:04:51.180Z,120
2017-04-30T08:05:52.472Z,115
2017-04-30T08:06:53.766Z,115
2017-04-30T08:07:55.056Z,115
2017-04-30T08:08:56.349Z,115
2017-04-30T08:09:57.642Z,120
2017-04-30T08:10:58.933Z,120
2017-04-30T08:12:00.227Z,120
2017-04-30T08:13:01.517Z,120
2017-04-30T08:14:02.808Z,120
2017-04-30T08:15:04.103Z,120
2017-04-30T08:16:05.397Z,120
2017-04-30T08:17:06.688Z,120
2017-04-30T08:18:07.985Z,125
2017-04-30T08:19:09.272Z,125
2017-04-30T08:20:11.107Z,125
2017-04-30T08:21:12.434Z,125
2017-04-30T08:22:13.722Z,125
2017-04-30T08:23:15.444Z,125
2017-04-30T08:24:17.104Z,125
2017-04-30T08:25:18.822Z,130
2017-04-30T08:26:20.125Z,125
2017-04-30T08:27:21.417Z,125
2017-04-30T08:28:22.711Z,130
2017-04-30T08:29:24.002Z,130
2017-04-30T08:30:25.317Z,130
2017-04-30T08:31:26.588Z,130
2017-04-30T08:32:27.882Z,130
2017-04-30T08:33:29.176Z,135
2017-04-30T08:34:30.465Z,135
2017-04-30T08:35:31.757Z,135
2017-04-30T08:36:33.049Z,135
2017-04-30T08:37:37.904Z,135
2017-04-30T08:38:39.266Z,135
2017-04-30T08:39:40.558Z,135
2017-04-30T08:40:45.351Z,135
2017-04-30T08:41:46.658Z,135
2017-04-30T08:42:47.953Z,135
2017-04-30T08:43:49.246Z,135
2017-04-30T08:44:50.540Z,135
2017-04-30T08:45:51.835Z,135
2017-04-30T08:46:53.128Z,135
2017-04-30T08:47:54.421Z,135
2017-04-30T08:48:55.717Z,135
2017-04-30T08:49:57.010Z,130
2017-04-30T08:50:58.301Z,125
2017-04-30T08:51:59.684Z,135
2017-04-30T08:53:03.040Z,135
2017-04-30T08:54:07.632Z,140
2017-04-30T08:55:09.062Z,140
2017-04-30T08:56:10.356Z,140
2017-04-30T08:57:15.502Z,135
2017-04-30T08:58:18.504Z,130
2017-04-30T08:59:23.422Z,125
2017-04-30T09:00:27.458Z,125
2017-04-30T09:01:32.892Z,125
2017-04-30T09:02:35.851Z,125
2017-04-30T09:03:37.137Z,120
2017-04-30T09:04:38.429Z,125
2017-04-30T09:05:43.127Z,125
2017-04-30T09:06:46.212Z,130
2017-04-30T09:07:49.111Z,130
2017-04-30T09:08:50.409Z,125
2017-04-30T09:09:51.720Z,125
2017-04-30T09:10:57.398Z,130
2017-04-30T09:12:02.213Z,130
2017-04-30T09:13:03.451Z,125
2017-04-30T09:14:08.818Z,125
2017-04-30T09:15:10.066Z,115
2017-04-30T09:16:11.360Z,120
2017-04-30T09:17:12.939Z,120
2017-04-30T09:18:15.040Z,110
2017-04-30T09:19:18.967Z,110
2017-04-30T09:20:20.207Z,110
2017-04-30T09:21:21.524Z,115
2017-04-30T09:22:22.817Z,105
2017-04-30T09:23:24.242Z,105
2017-04-30T09:24:25.532Z,110
2017-04-30T09:25:27.566Z,105
2017-04-30T09:26:28.861Z,110
2017-04-30T09:27:30.156Z,105
2017-04-30T09:28:31.446Z,105
2017-04-30T09:29:32.739Z,100
2017-04-30T09:30:34.033Z,100
2017-04-30T09:31:35.329Z,105
2017-04-30T09:32:36.623Z,105
2017-04-30T09:33:37.919Z,115
2017-04-30T09:34:39.213Z,115
2017-04-30T09:35:40.505Z,110
2017-04-30T09:36:41.799Z,120
2017-04-30T09:37:44.104Z,120
2017-04-30T09:38:45.396Z,120
2017-04-30T09:39:46.695Z,120
2017-04-30T09:40:48.013Z,120
2017-04-30T09:41:49.321Z,120
2017-04-30T09:42:50.611Z,120
2017-04-30T09:43:51.909Z,120
2017-04-30T09:44:53.289Z,120
2017-04-30T09:45:54.580Z,120
2017-04-30T09:46:55.871Z,120
2017-04-30T09:47:57.164Z,115
2017-04-30T09:48:58.455Z,120
2017-04-30T09:49:59.747Z,115
2017-04-30T09:51:01.046Z,120
2017-04-30T09:52:02.326Z,120
2017-04-30T09:53:04.155Z,115
2017-04-30T09:54:05.451Z,120
2017-04-30T09:55:06.742Z,120
2017-04-30T09:56:08.036Z,120
2017-04-30T09:57:09.328Z,120
2017-04-30T09:58:10.621Z,120
2017-04-30T09:59:11.910Z,120
2017-04-30T10:00:16.864Z,120
2017-04-30T10:01:18.151Z,120
2017-04-30T10:02:19.443Z,120
2017-04-30T10:03:20.736Z,115
2017-04-30T10:04:22.034Z,115
2017-04-30T10:05:23.329Z,115
2017-04-30T10:06:25.348Z,115
2017-04-30T10:07:26.614Z,115
2017-04-30T10:08:27.907Z,115
2017-04-30T10:09:32.803Z,115
2017-04-30T10:10:34.792Z,115
2017-04-30T10:11:39.248Z,120
2017-04-30T10:12:40.543Z,120
2017-04-30T10:13:41.839Z,120
2017-04-30T10:14:43.130Z,120
2017-04-30T10:15:44.431Z,120
2017-04-30T10:16:45.968Z,120
2017-04-30T10:17:47.260Z,120
2017-04-30T10:18:48.556Z,120
2017-04-30T10:19:49.848Z,120
2017-04-30T10:20:51.142Z,115
2017-04-30T10:21:55.689Z,115
2017-04-30T10:22:56.935Z,115
2017-04-30T10:23:58.227Z,115
2017-04-30T10:24:59.518Z,115
2017-04-30T10:26:00.812Z,115
2017-04-30T10:27:02.105Z,120
2017-04-30T10:28:03.397Z,120
2017-04-30T10:29:04.691Z,120
2017-04-30T10:30:07.662Z,125
2017-04-30T10:31:08.989Z,130
2017-04-30T10:32:10.287Z,125
2017-04-30T10:33:11.579Z,125
2017-04-30T10:34:12.875Z,125
2017-04-30T10:35:14.161Z,125
2017-04-30T10:36:15.452Z,125
2017-04-30T10:37:16.746Z,125
2017-04-30T10:38:18.039Z,125
2017-04-30T10:39:19.333Z,125
2017-04-30T10:40:20.625Z,125
2017-04-30T10:41:21.918Z,125
2017-04-30T10:42:23.211Z,120
2017-04-30T10:43:24.515Z,120
2017-04-30T10:44:25.809Z,120
2017-04-30T10:45:27.101Z,115
2017-04-30T10:46:28.399Z,120
2017-04-30T10:47:29.685Z,120
2017-04-30T10:48:30.977Z,120
2017-04-30T10:49:32.269Z,120
2017-04-30T10:50:33.562Z,120
2017-04-30T10:51:34.854Z,115
2017-04-30T10:52:36.145Z,120
2017-04-30T10:53:37.438Z,120
2017-04-30T10:54:38.730Z,120
2017-04-30T10:55:40.022Z,115
2017-04-30T10:56:41.312Z,115
2017-04-30T10:57:42.605Z,120
2017-04-30T10:58:43.896Z,120
2017-04-30T10:59:45.187Z,120
2017-04-30T11:00:46.525Z,120
2017-04-30T11:01:47.817Z,115
2017-04-30T11:02:49.108Z,120
2017-04-30T11:03:50.399Z,115
2017-04-30T11:04:51.690Z,110
2017-04-30T11:05:52.982Z,110
2017-04-30T11:06:54.275Z,110
2017-04-30T11:07:55.565Z,115
2017-04-30T11:08:56.857Z,120
2017-04-30T11:09:58.148Z,120
2017-04-30T11:10:59.439Z,125
2017-04-30T11:12:00.766Z,125
2017-04-30T11:13:02.052Z,125
2017-04-30T11:14:03.342Z,130
2017-04-30T11:15:04.634Z,130
2017-04-30T11:16:05.924Z,130
2017-04-30T11:17:07.216Z,130
2017-04-30T11:18:08.511Z,125
2017-04-30T11:19:09.806Z,120
2017-04-30T11:20:11.098Z,120
2017-04-30T11:21:12.388Z,115
2017-04-30T11:22:13.681Z,115
2017-04-30T11:23:14.970Z,110
2017-04-30T11:24:16.262Z,105
2017-04-30T11:25:17.552Z,100
2017-04-30T11:26:18.844Z,95
2017-04-30T11:27:20.135Z,95
2017-04-30T11:28:21.427Z,90
2017-04-30T11:29:22.739Z,90
2017-04-30T11:30:24.031Z,90
2017-04-30T11:31:25.324Z,95
2017-04-30T11:32:26.617Z,100
2017-04-30T11:33:27.908Z,110
2017-04-30T11:34:29.201Z,120
2017-04-30T11:35:30.492Z,125
2017-04-30T11:36:31.786Z,135
2017-04-30T11:37:33.077Z,145
2017-04-30T11:38:34.372Z,150
2017-04-30T11:39:35.663Z,160
2017-04-30T11:40:36.959Z,165
2017-04-30T11:41:38.255Z,170
2017-04-30T11:42:39.568Z,170
2017-04-30T11:43:40.857Z,170
2017-04-30T11:44:42.153Z,170
2017-04-30T11:45:43.444Z,170
2017-04-30T11:46:44.737Z,165
2017-04-30T11:47:46.031Z,160
2017-04-30T11:48:47.324Z,155
2017-04-30T11:49:48.617Z,155
2017-04-30T11:50:49.906Z,155
2017-04-30T11:51:51.196Z,145
2017-04-30T11:52:52.489Z,135
2017-04-30T11:53:53.785Z,130
2017-04-30T11:54:55.076Z,125
2017-04-30T11:55:56.373Z,120
2017-04-30T11:56:57.664Z,125
2017-04-30T11:57:58.958Z,120
2017-04-30T11:59:00.250Z,120
2017-04-30T12:00:01.541Z,125
2017-04-30T12:01:02.835Z,125
2017-04-30T12:02:04.124Z,125
2017-04-30T12:03:05.417Z,135
2017-04-30T12:04:06.711Z,140
2017-04-30T12:05:08.003Z,145
2017-04-30T12:06:09.295Z,145
2017-04-30T12:07:10.587Z,150
2017-04-30T12:08:11.877Z,150
2017-04-30T12:09:13.171Z,150
2017-04-30T12:10:14.468Z,150
2017-04-30T12:11:15.764Z,150
2017-04-30T12:12:17.052Z,150
2017-04-30T12:13:18.345Z,150
2017-04-30T12:14:19.659Z,150
2017-04-30T12:15:20.949Z,150
2017-04-30T12:16:22.245Z,150
2017-04-30T12:17:23.538Z,145
2017-04-30T12:18:24.837Z,145
2017-04-30T12:19:26.124Z,145
2017-04-30T12:20:27.424Z,140
2017-04-30T12:21:28.718Z,140
2017-04-30T12:22:30.010Z,140
2017-04-30T12:23:31.307Z,135
2017-04-30T12:24:32.597Z,135
2017-04-30T12:25:33.888Z,135
2017-04-30T12:26:35.183Z,135
2017-04-30T12:27:36.475Z,130
2017-04-30T12:28:37.768Z,130
2017-04-30T12:29:39.061Z,125
2017-04-30T12:30:40.353Z,125
2017-04-30T12:31:41.646Z,125
2017-04-30T12:32:42.938Z,120
2017-04-30T12:33:44.231Z,120
2017-04-30T12:34:45.523Z,110
2017-04-30T12:35:46.814Z,110
2017-04-30T12:36:48.108Z,110
2017-04-30T12:37:49.406Z,110
2017-04-30T12:38:50.697Z,115
2017-04-30T12:39:51.989Z,115
2017-04-30T12:40:53.280Z,115
2017-04-30T12:41:54.571Z,120
2017-04-30T12:42:55.864Z,120
2017-04-30T12:43:57.155Z,120
2017-04-30T12:44:58.448Z,120
2017-04-30T12:45:59.740Z,120
2017-04-30T12:47:01.036Z,120
2017-04-30T12:48:02.347Z,120
2017-04-30T12:49:03.629Z,120
2017-04-30T12:50:04.916Z,115
2017-04-30T12:51:06.210Z,120
2017-04-30T12:52:07.504Z,115
2017-04-30T12:53:08.800Z,115
2017-04-30T12:54:10.107Z,115
2017-04-30T12:55:11.399Z,115
2017-04-30T12:56:12.693Z,115
2017-04-30T12:57:13.984Z,115
2017-04-30T12:58:15.278Z,115
2017-04-30T12:59:16.571Z,110
2017-04-30T13:00:17.860Z,115
2017-04-30T13:01:19.153Z,110
2017-04-30T13:02:20.448Z,115
2017-04-30T13:03:21.762Z,115
2017-04-30T13:04:23.053Z,115
2017-04-30T13:05:24.344Z,115
2017-04-30T13:06:25.636Z,110
2017-04-30T13:07:26.929Z,105
2017-04-30T13:08:28.219Z,105
2017-04-30T13:09:29.515Z,105
2017-04-30T13:10:30.805Z,110
2017-04-30T13:11:32.094Z,120
2017-04-30T13:12:33.390Z,110
2017-04-30T13:13:34.683Z,115
2017-04-30T13:14:35.974Z,130
2017-04-30T13:15:37.264Z,130
2017-04-30T13:16:38.557Z,130
2017-04-30T13:17:39.847Z,130
2017-04-30T13:18:41.140Z,130
2017-04-30T13:19:42.431Z,130
2017-04-30T13:20:43.725Z,130
2017-04-30T13:21:45.020Z,125
2017-04-30T13:22:46.311Z,125
2017-04-30T13:23:47.606Z,120
2017-04-30T13:24:48.899Z,115
2017-04-30T13:25:50.190Z,115
2017-04-30T13:26:51.483Z,115
2017-04-30T13:27:52.777Z,115
2017-04-30T13:28:54.068Z,115
2017-04-30T13:29:55.361Z,110
2017-04-30T13:30:56.651Z,115
2017-04-30T13:31:57.944Z,115
2017-04-30T13:32:59.269Z,110
2017-04-30T13:34:00.558Z,110
2017-04-30T13:35:01.853Z,110
2017-04-30T13:36:03.142Z,110
2017-04-30T13:37:04.435Z,110
2017-04-30T13:38:05.729Z,115
2017-04-30T13:39:07.023Z,115
2017-04-30T13:40:08.314Z,115
2017-04-30T13:41:09.610Z,115
2017-04-30T13:42:10.903Z,110
2017-04-30T13:43:12.194Z,115
2017-04-30T13:44:13.500Z,115
2017-04-30T13:45:14.810Z,115
2017-04-30T13:46:16.109Z,120
2017-04-30T13:47:17.397Z,120
2017-04-30T13:48:18.690Z,125
2017-04-30T13:49:19.983Z,125
2017-04-30T13:50:21.274Z,125
2017-04-30T13:51:22.565Z,125
2017-04-30T13:52:23.854Z,125
2017-04-30T13:53:25.142Z,125
2017-04-30T13:54:26.435Z,125
2017-04-30T13:55:27.726Z,125
2017-04-30T13:56:29.023Z,125
2017-04-30T13:57:30.310Z,125
2017-04-30T13:58:31.605Z,125
2017-04-30T13:59:32.902Z,120
2017-04-30T14:00:34.193Z,125
2017-04-30T14:01:35.484Z,130
2017-04-30T14:02:36.779Z,130
2017-04-30T14:03:38.071Z,125
2017-04-30T14:04:39.363Z,120
2017-04-30T14:05:40.660Z,125
2017-04-30T14:06:41.949Z,125
2017-04-30T14:07:43.246Z,125
2017-04-30T14:08:44.536Z,130
2017-04-30T14:09:45.826Z,130
2017-04-30T14:10:47.123Z,135
2017-04-30T14:11:48.410Z,135
2017-04-30T14:12:49.700Z,130
2017-04-30T14:13:50.996Z,130
2017-04-30T14:14:52.294Z,135
2017-04-30T14:15:53.582Z,135
2017-04-30T14:16:54.882Z,135
2017-04-30T14:17:56.175Z,140
2017-04-30T14:18:57.473Z,135
2017-04-30T14:19:58.787Z,140
2017-04-30T14:21:00.077Z,140
2017-04-30T14:22:01.389Z,130
2017-04-30T14:23:02.681Z,140
2017-04-30T14:24:03.984Z,140
2017-04-30T14:25:05.277Z,140
2017-04-30T14:26:06.570Z,140
2017-04-30T14:27:07.865Z,135
2017-04-30T14:28:09.194Z,140
2017-04-30T14:29:10.487Z,135
2017-04-30T14:30:11.777Z,135